createdAt,value
2023-01-21T00:00:06.232Z,19.03
2023-01-21T00:02:36.786Z,17.20
2023-01-21T00:05:04.064Z,18.07
2023-01-21T00:07:33.682Z,16.33
2023-01-21T00:10:05.033Z,15.17
2023-01-21T00:12:37.253Z,14.50
2023-01-21T00:15:04.676Z,16.53
2023-01-21T00:17:38.962Z,14.97
2023-01-21T00:20:17.295Z,15.40
2023-01-21T00:22:46.383Z,15.90
2023-01-21T00:25:20.727Z,16.30
2023-01-21T00:27:48.336Z,15.90
2023-01-21T00:30:16.716Z,14.93
2023-01-21T00:32:45.448Z,15.03
2023-01-21T00:35:14.086Z,15.90
2023-01-21T00:37:42.540Z,14.87
2023-01-21T00:40:14.978Z,14.90
2023-01-21T00:42:43.801Z,15.37
2023-01-21T00:45:14.088Z,15.47
2023-01-21T00:47:42.292Z,15.90
2023-01-21T00:50:14.103Z,16.97
2023-01-21T00:52:42.299Z,15.90
2023-01-21T00:55:14.746Z,15.00
2023-01-21T00:57:43.495Z,15.20
2023-01-21T01:00:16.327Z,15.40
2023-01-21T01:02:45.620Z,13.63
2023-01-21T01:05:17.909Z,15.23
2023-01-21T01:07:48.026Z,14.87
2023-01-21T01:10:19.668Z,14.83
2023-01-21T01:12:48.563Z,14.17
2023-01-21T01:15:18.793Z,14.80
2023-01-21T01:17:46.289Z,14.60
2023-01-21T01:20:14.901Z,15.87
2023-01-21T01:22:45.945Z,14.40
2023-01-21T01:25:16.512Z,16.03
2023-01-21T01:27:47.767Z,16.10
2023-01-21T01:30:18.380Z,14.93
2023-01-21T01:32:46.945Z,14.87
2023-01-21T01:35:15.761Z,14.17
2023-01-21T01:37:44.042Z,15.20
2023-01-21T01:40:13.652Z,14.20
2023-01-21T01:42:43.558Z,14.20
2023-01-21T01:45:23.436Z,14.90
2023-01-21T01:48:02.204Z,14.07
2023-01-21T01:50:40.701Z,15.30
2023-01-21T01:53:14.169Z,14.63
2023-01-21T01:55:43.022Z,13.90
2023-01-21T01:58:14.677Z,14.63
2023-01-21T02:00:44.112Z,15.93
2023-01-21T02:03:33.745Z,14.63
2023-01-21T02:06:02.680Z,14.67
2023-01-21T02:08:32.282Z,14.00
2023-01-21T02:11:01.484Z,14.07
2023-01-21T02:13:31.814Z,14.27
2023-01-21T02:16:37.807Z,15.07
2023-01-21T02:19:37.984Z,12.87
2023-01-21T02:22:33.988Z,13.57
2023-01-21T02:25:21.863Z,13.87
2023-01-21T02:28:13.487Z,12.77
2023-01-21T02:31:03.532Z,12.93
2023-01-21T02:33:41.766Z,12.77
2023-01-21T02:36:38.791Z,11.80
2023-01-21T02:39:30.289Z,12.03
2023-01-21T02:42:20.298Z,11.40
2023-01-21T02:45:04.796Z,11.20
2023-01-21T02:48:14.205Z,11.70
2023-01-21T02:50:54.345Z,11.63
2023-01-21T02:53:27.738Z,10.30
2023-01-21T02:55:57.667Z,9.63
2023-01-21T02:58:34.033Z,9.63
2023-01-21T03:01:39.727Z,9.60
2023-01-21T03:04:26.263Z,9.20
2023-01-21T03:07:46.953Z,9.60
2023-01-21T03:10:55.869Z,10.17
2023-01-21T03:13:52.789Z,10.07
2023-01-21T03:16:46.570Z,11.90
2023-01-21T03:19:19.685Z,10.63
2023-01-21T03:21:53.157Z,11.47
2023-01-21T03:24:23.144Z,10.93
2023-01-21T03:26:57.211Z,11.23
2023-01-21T03:29:28.796Z,10.80
2023-01-21T03:32:06.188Z,11.90
2023-01-21T03:34:37.239Z,12.03
2023-01-21T03:37:36.715Z,12.90
2023-01-21T03:40:24.029Z,13.37
2023-01-21T03:42:56.231Z,11.90
2023-01-21T03:45:51.273Z,11.13
2023-01-21T03:49:00.121Z,14.03
2023-01-21T03:51:44.677Z,11.13
2023-01-21T03:54:13.365Z,11.30
2023-01-21T03:56:42.369Z,11.00
2023-01-21T03:59:10.548Z,11.50
2023-01-21T04:01:37.500Z,10.40
2023-01-21T04:04:05.800Z,11.73
2023-01-21T04:06:40.410Z,11.00
2023-01-21T04:09:14.398Z,11.00
2023-01-21T04:11:42.393Z,10.87
2023-01-21T04:14:12.465Z,11.13
2023-01-21T04:16:43.561Z,10.93
2023-01-21T04:19:16.622Z,12.77
2023-01-21T04:21:44.195Z,11.37
2023-01-21T04:24:14.722Z,12.00
2023-01-21T04:26:44.157Z,10.67
2023-01-21T04:29:12.588Z,10.90
2023-01-21T04:31:43.458Z,10.00
2023-01-21T04:34:13.128Z,11.97
2023-01-21T04:36:42.495Z,11.70
2023-01-21T04:39:11.447Z,11.13
2023-01-21T04:41:39.334Z,10.83
2023-01-21T04:44:07.720Z,10.40
2023-01-21T04:46:36.476Z,10.87
2023-01-21T04:49:04.158Z,10.37
2023-01-21T04:51:34.545Z,10.90
2023-01-21T04:54:03.859Z,10.53
2023-01-21T04:56:33.456Z,10.33
2023-01-21T04:59:04.068Z,10.73
2023-01-21T05:01:39.924Z,10.03
2023-01-21T05:04:09.286Z,10.87
2023-01-21T05:06:37.622Z,9.80
2023-01-21T05:09:06.712Z,10.83
2023-01-21T05:11:36.790Z,11.43
2023-01-21T05:14:06.785Z,10.03
2023-01-21T05:16:37.711Z,9.87
2023-01-21T05:19:08.963Z,9.80
2023-01-21T05:21:37.605Z,10.00
2023-01-21T05:24:06.638Z,9.93
2023-01-21T05:26:36.095Z,9.27
2023-01-21T05:29:04.605Z,9.33
2023-01-21T05:31:38.865Z,10.60
2023-01-21T05:34:07.123Z,10.87
2023-01-21T05:36:38.403Z,11.13
2023-01-21T05:39:08.950Z,9.53
2023-01-21T05:41:39.440Z,10.53
2023-01-21T05:44:11.303Z,9.53
2023-01-21T05:46:39.158Z,9.90
2023-01-21T05:49:06.632Z,9.37
2023-01-21T05:51:36.433Z,9.20
2023-01-21T05:54:04.910Z,9.87
2023-01-21T05:56:36.247Z,8.83
2023-01-21T05:59:06.736Z,9.30
2023-01-21T06:01:38.723Z,9.10
2023-01-21T06:04:06.205Z,9.73
2023-01-21T06:06:41.745Z,9.63
2023-01-21T06:09:09.290Z,10.47
2023-01-21T06:11:37.421Z,10.33
2023-01-21T06:14:05.108Z,8.63
2023-01-21T06:16:36.569Z,8.50
2023-01-21T06:19:06.061Z,9.37
2023-01-21T06:21:36.749Z,10.00
2023-01-21T06:24:07.602Z,8.63
2023-01-21T06:26:39.977Z,10.37
2023-01-21T06:29:07.077Z,8.97
2023-01-21T06:31:36.516Z,8.80
2023-01-21T06:34:06.555Z,9.27
2023-01-21T06:36:35.833Z,9.27
2023-01-21T06:39:05.247Z,11.27
2023-01-21T06:41:36.844Z,12.43
2023-01-21T06:44:06.545Z,12.00
2023-01-21T06:46:33.901Z,11.97
2023-01-21T06:49:03.514Z,11.07
2023-01-21T06:51:33.783Z,9.00
2023-01-21T06:54:06.044Z,9.77
2023-01-21T06:56:38.476Z,8.37
2023-01-21T06:59:09.228Z,8.97
2023-01-21T07:01:39.364Z,8.03
2023-01-21T07:04:09.485Z,7.93
2023-01-21T07:06:37.839Z,8.47
2023-01-21T07:09:11.495Z,8.20
2023-01-21T07:11:40.481Z,8.30
2023-01-21T07:14:13.722Z,9.27
2023-01-21T07:16:44.644Z,10.20
2023-01-21T07:19:15.898Z,9.33
2023-01-21T07:21:47.013Z,8.53
2023-01-21T07:24:16.277Z,8.10
2023-01-21T07:26:49.086Z,8.63
2023-01-21T07:29:19.853Z,9.57
2023-01-21T07:31:47.088Z,9.60
2023-01-21T07:34:14.670Z,7.80
2023-01-21T07:36:43.567Z,8.97
2023-01-21T07:39:12.936Z,8.87
2023-01-21T07:41:42.222Z,9.17
2023-01-21T07:44:12.382Z,9.73
2023-01-21T07:46:40.849Z,9.30
2023-01-21T07:49:12.801Z,10.53
2023-01-21T07:51:41.097Z,10.00
2023-01-21T07:54:12.511Z,9.43
2023-01-21T07:56:42.429Z,8.97
2023-01-21T07:59:14.235Z,9.37
2023-01-21T08:01:42.757Z,7.63
2023-01-21T08:04:13.317Z,7.97
2023-01-21T08:06:41.911Z,9.43
2023-01-21T08:09:10.451Z,8.13
2023-01-21T08:11:39.191Z,7.80
2023-01-21T08:14:10.140Z,9.57
2023-01-21T08:16:44.837Z,7.40
2023-01-21T08:19:15.460Z,7.60
2023-01-21T08:21:46.343Z,8.97
2023-01-21T08:24:16.221Z,9.40
2023-01-21T08:26:45.812Z,9.57
2023-01-21T08:29:13.057Z,9.73
2023-01-21T08:31:42.957Z,8.30
2023-01-21T08:34:12.318Z,8.40
2023-01-21T08:36:42.844Z,9.83
2023-01-21T08:39:16.870Z,8.17
2023-01-21T08:41:47.226Z,8.13
2023-01-21T08:44:17.579Z,8.63
2023-01-21T08:46:48.812Z,7.40
2023-01-21T08:49:20.040Z,10.50
2023-01-21T08:51:49.755Z,8.93
2023-01-21T08:54:17.102Z,8.23
2023-01-21T08:56:46.480Z,7.80
2023-01-21T08:59:17.040Z,8.23
2023-01-21T09:01:47.753Z,8.67
2023-01-21T09:04:16.774Z,7.57
2023-01-21T09:06:43.730Z,8.80
2023-01-21T09:09:11.972Z,7.77
2023-01-21T09:11:39.186Z,8.13
2023-01-21T09:14:09.222Z,7.73
2023-01-21T09:16:40.031Z,8.23
2023-01-21T09:19:12.191Z,7.77
2023-01-21T09:21:40.315Z,8.20
2023-01-21T09:24:09.830Z,8.27
2023-01-21T09:26:40.521Z,7.10
2023-01-21T09:29:10.237Z,8.33
2023-01-21T09:31:40.613Z,8.30
2023-01-21T09:34:11.492Z,8.00
2023-01-21T09:36:39.945Z,8.47
2023-01-21T09:39:07.880Z,7.57
2023-01-21T09:41:44.740Z,7.73
2023-01-21T09:44:36.284Z,9.57
2023-01-21T09:47:24.622Z,9.57
2023-01-21T09:50:09.573Z,9.30
2023-01-21T09:53:11.587Z,9.10
2023-01-21T09:55:47.674Z,7.97
2023-01-21T09:58:50.552Z,8.97
2023-01-21T10:01:33.608Z,7.87
2023-01-21T10:04:38.802Z,8.07
2023-01-21T10:07:34.181Z,7.67
2023-01-21T10:10:23.702Z,8.40
2023-01-21T10:13:17.228Z,8.43
2023-01-21T10:16:28.187Z,9.27
2023-01-21T10:18:58.971Z,7.77
2023-01-21T10:21:38.992Z,11.20
2023-01-21T10:24:32.103Z,10.70
2023-01-21T10:27:01.071Z,14.60
2023-01-21T10:29:28.718Z,15.07
2023-01-21T10:32:03.470Z,8.83
2023-01-21T10:34:34.378Z,8.93
2023-01-21T10:37:43.012Z,7.47
2023-01-21T10:40:44.999Z,8.47
2023-01-21T10:43:51.663Z,8.53
2023-01-21T10:46:48.629Z,9.23
2023-01-21T10:49:33.526Z,9.70
2023-01-21T10:52:28.311Z,9.07
2023-01-21T10:55:14.282Z,8.83
2023-01-21T10:58:06.129Z,8.83
2023-01-21T11:00:44.425Z,9.23
2023-01-21T11:03:16.993Z,8.87
2023-01-21T11:05:45.001Z,8.23
2023-01-21T11:08:19.474Z,8.13
2023-01-21T11:10:55.651Z,8.00
2023-01-21T11:13:24.992Z,8.83
2023-01-21T11:15:56.552Z,17.67
2023-01-21T11:18:42.224Z,12.97
2023-01-21T11:21:27.113Z,7.70
2023-01-21T11:24:00.305Z,8.10
2023-01-21T11:26:33.828Z,7.90
2023-01-21T11:29:20.655Z,8.10
2023-01-21T11:32:08.418Z,8.83
2023-01-21T11:34:35.510Z,8.20
2023-01-21T11:37:08.493Z,7.97
2023-01-21T11:39:59.087Z,7.87
2023-01-21T11:42:30.967Z,7.60
2023-01-21T11:45:31.591Z,6.90
2023-01-21T11:48:01.327Z,7.27
2023-01-21T11:50:30.897Z,6.70
2023-01-21T11:53:18.231Z,7.03
2023-01-21T11:55:49.977Z,8.40
2023-01-21T11:58:28.421Z,9.33
2023-01-21T12:01:01.434Z,9.47
2023-01-21T12:03:44.945Z,8.90
2023-01-21T12:06:25.699Z,8.63
2023-01-21T12:09:04.406Z,7.43
2023-01-21T12:11:35.055Z,7.80
2023-01-21T12:14:20.792Z,7.07
2023-01-21T12:16:54.443Z,6.93
2023-01-21T12:19:54.405Z,8.17
2023-01-21T12:22:59.493Z,7.03
2023-01-21T12:26:15.887Z,12.67
2023-01-21T12:29:01.651Z,7.40
2023-01-21T12:31:45.050Z,6.40
2023-01-21T12:34:40.672Z,7.53
2023-01-21T12:37:35.377Z,8.07
2023-01-21T12:40:27.356Z,6.93
2023-01-21T12:43:04.661Z,7.45
2023-01-21T12:46:19.196Z,7.43
2023-01-21T12:49:25.716Z,7.37
2023-01-21T12:52:06.745Z,9.23
2023-01-21T12:55:07.879Z,7.70
2023-01-21T12:58:13.967Z,9.30
2023-01-21T13:00:49.694Z,8.90
2023-01-21T13:04:00.883Z,10.63
2023-01-21T13:06:54.102Z,6.73
2023-01-21T13:09:56.627Z,6.63
2023-01-21T13:12:29.608Z,9.23
2023-01-21T13:15:20.606Z,7.67
2023-01-21T13:17:55.556Z,8.33
2023-01-21T13:20:26.005Z,7.50
2023-01-21T13:23:25.929Z,10.77
2023-01-21T13:26:30.975Z,7.80
2023-01-21T13:29:27.587Z,6.67
2023-01-21T13:32:26.627Z,7.20
2023-01-21T13:35:16.792Z,7.03
2023-01-21T13:38:04.562Z,7.90
2023-01-21T13:40:48.356Z,8.13
2023-01-21T13:43:54.712Z,7.63
2023-01-21T13:47:11.219Z,7.07
2023-01-21T13:50:05.164Z,7.70
2023-01-21T13:52:54.244Z,7.93
2023-01-21T13:55:58.832Z,7.37
2023-01-21T13:58:49.851Z,10.30
2023-01-21T14:01:35.591Z,8.70
2023-01-21T14:04:25.427Z,12.10
2023-01-21T14:10:20.787Z,17.93
2023-01-21T14:13:21.941Z,10.37
2023-01-21T14:16:39.121Z,9.40
2023-01-21T14:19:49.966Z,8.80
2023-01-21T14:22:39.639Z,9.60
2023-01-21T14:25:45.678Z,9.33
2023-01-21T14:28:32.190Z,8.90
2023-01-21T14:31:13.913Z,9.20
2023-01-21T14:34:05.939Z,9.80
2023-01-21T14:36:50.673Z,9.13
2023-01-21T14:39:52.060Z,9.77
2023-01-21T14:42:39.366Z,8.40
2023-01-21T14:45:10.941Z,12.73
2023-01-21T14:47:43.400Z,12.90
2023-01-21T14:50:12.020Z,12.03
2023-01-21T14:52:57.127Z,12.07
2023-01-21T14:55:32.444Z,8.33
2023-01-21T14:58:02.083Z,9.03
2023-01-21T15:00:39.171Z,7.90
2023-01-21T15:03:36.620Z,7.40
2023-01-21T15:06:09.853Z,7.60
2023-01-21T15:08:46.286Z,7.17
2023-01-21T15:35:48.797Z,9.57
2023-01-21T15:38:15.897Z,9.70
2023-01-21T15:40:52.867Z,11.70
2023-01-21T15:43:41.097Z,11.70
2023-01-21T15:46:52.659Z,13.37
2023-01-21T15:49:47.281Z,12.40
2023-01-21T15:52:40.347Z,12.63
2023-01-21T15:55:28.999Z,36.57
2023-01-21T15:57:56.063Z,21.87
2023-01-21T16:00:38.001Z,28.13
2023-01-21T16:03:23.733Z,20.03
2023-01-21T16:06:06.731Z,39.00
2023-01-21T16:08:52.452Z,39.17
2023-01-21T16:11:32.481Z,22.60
2023-01-21T16:14:17.134Z,14.03
2023-01-21T16:16:48.208Z,14.47
2023-01-21T16:19:24.397Z,14.50
2023-01-21T16:21:57.131Z,13.13
2023-01-21T16:24:28.529Z,12.63
2023-01-21T16:26:58.236Z,12.87
2023-01-21T16:29:26.957Z,13.30
2023-01-21T16:31:59.776Z,14.20
2023-01-21T16:34:44.425Z,13.00
2023-01-21T16:37:20.596Z,13.33
2023-01-21T16:39:48.547Z,13.10
2023-01-21T16:42:31.881Z,14.90
2023-01-21T16:45:00.433Z,13.47
2023-01-21T16:47:36.074Z,13.73
2023-01-21T16:50:15.878Z,13.07
2023-01-21T16:52:44.088Z,14.95
2023-01-21T16:55:20.147Z,13.80
2023-01-21T16:57:53.371Z,13.57
2023-01-21T17:00:32.931Z,12.00
2023-01-21T17:03:01.011Z,12.33
2023-01-21T17:05:33.798Z,12.43
2023-01-21T17:08:04.584Z,13.53
2023-01-21T17:10:36.744Z,13.67
2023-01-21T17:13:07.434Z,14.87
2023-01-21T17:15:44.013Z,16.80
2023-01-21T17:18:23.552Z,18.17
2023-01-21T17:21:07.139Z,17.07
2023-01-21T17:23:58.719Z,17.20
2023-01-21T17:26:36.984Z,15.03
2023-01-21T17:29:26.422Z,15.33
2023-01-21T17:32:17.995Z,15.80
2023-01-21T17:35:13.609Z,15.33
2023-01-21T17:37:53.410Z,13.43
2023-01-21T17:40:43.366Z,13.03
2023-01-21T17:43:25.981Z,16.17
2023-01-21T17:45:56.330Z,14.90
2023-01-21T17:48:24.757Z,16.33
2023-01-21T17:50:53.682Z,15.67
2023-01-21T17:53:28.642Z,15.37
2023-01-21T17:56:00.389Z,15.20
2023-01-21T17:58:50.629Z,15.83
2023-01-21T18:01:20.248Z,15.77
2023-01-21T18:03:48.249Z,14.97
2023-01-21T18:06:24.385Z,15.90
2023-01-21T18:08:54.653Z,15.87
2023-01-21T18:11:23.288Z,14.57
2023-01-21T18:13:52.782Z,15.33
2023-01-21T18:16:20.240Z,14.77
2023-01-21T18:18:49.571Z,15.37
2023-01-21T18:21:20.043Z,14.47
2023-01-21T18:23:48.894Z,16.80
2023-01-21T18:26:32.653Z,15.67
2023-01-21T18:29:00.031Z,18.17
2023-01-21T18:31:27.513Z,15.83
2023-01-21T18:33:55.448Z,17.47
2023-01-21T18:36:25.571Z,16.37
2023-01-21T18:38:53.164Z,18.00
2023-01-21T18:41:20.930Z,17.03
2023-01-21T18:43:49.915Z,16.80
2023-01-21T18:46:19.843Z,17.27
2023-01-21T18:48:47.990Z,17.33
2023-01-21T18:51:15.442Z,17.67
2023-01-21T18:53:43.067Z,17.17
2023-01-21T18:56:18.872Z,16.67
2023-01-21T18:58:48.537Z,18.40
2023-01-21T19:01:23.658Z,17.50
2023-01-21T19:03:53.818Z,18.50
2023-01-21T19:06:23.788Z,16.37
2023-01-21T19:08:51.677Z,15.67
2023-01-21T19:11:19.609Z,15.67
2023-01-21T19:13:47.326Z,17.30
2023-01-21T19:16:17.378Z,25.13
2023-01-21T19:18:44.893Z,24.77
2023-01-21T19:21:13.114Z,30.47
2023-01-21T19:23:44.737Z,28.30
2023-01-21T19:26:15.406Z,30.33
2023-01-21T19:28:44.542Z,24.73
2023-01-21T19:31:13.461Z,22.50
2023-01-21T19:33:45.950Z,22.93
2023-01-21T19:36:16.824Z,20.73
2023-01-21T19:38:56.036Z,20.93
2023-01-21T19:41:25.781Z,23.50
2023-01-21T19:43:54.994Z,18.73
2023-01-21T19:46:24.401Z,17.23
2023-01-21T19:48:55.208Z,18.50
2023-01-21T19:51:26.988Z,17.57
2023-01-21T19:53:55.548Z,17.13
2023-01-21T19:56:27.893Z,19.97
2023-01-21T19:58:58.758Z,18.37
2023-01-21T20:01:31.229Z,19.83
2023-01-21T20:04:00.982Z,19.20
2023-01-21T20:06:34.976Z,19.13
2023-01-21T20:09:04.929Z,19.43
2023-01-21T20:11:32.898Z,19.50
2023-01-21T20:14:06.473Z,17.50
2023-01-21T20:16:49.124Z,16.50
2023-01-21T20:19:19.600Z,18.67
2023-01-21T20:22:01.152Z,18.03
2023-01-21T20:24:34.538Z,16.40
2023-01-21T20:27:09.351Z,16.87
2023-01-21T20:29:44.375Z,17.97
2023-01-21T20:32:12.566Z,17.90
2023-01-21T20:34:41.733Z,21.67
2023-01-21T20:37:14.384Z,20.93
2023-01-21T20:39:42.482Z,18.83
2023-01-21T20:42:12.545Z,18.10
2023-01-21T20:44:41.660Z,16.70
2023-01-21T20:47:11.847Z,16.97
2023-01-21T20:49:42.078Z,18.00
2023-01-21T20:52:11.511Z,18.00
2023-01-21T20:54:40.754Z,17.83
2023-01-21T20:57:14.405Z,18.20
2023-01-21T20:59:42.297Z,18.97
2023-01-21T21:02:12.984Z,18.60
2023-01-21T21:04:40.939Z,15.90
2023-01-21T21:07:16.720Z,17.80
2023-01-21T21:09:45.212Z,18.57
2023-01-21T21:12:13.732Z,17.00
2023-01-21T21:14:44.019Z,16.97
2023-01-21T21:17:13.093Z,17.77
2023-01-21T21:19:40.609Z,16.00
2023-01-21T21:22:08.008Z,16.73
2023-01-21T21:24:36.204Z,17.43
2023-01-21T21:27:04.817Z,16.37
2023-01-21T21:29:31.841Z,16.03
2023-01-21T21:32:02.942Z,16.50
2023-01-21T21:34:30.534Z,15.30
2023-01-21T21:36:57.976Z,15.30
2023-01-21T21:39:25.921Z,15.13
2023-01-21T21:42:11.642Z,16.20
2023-01-21T21:44:44.936Z,15.20
2023-01-21T21:47:30.697Z,17.13
2023-01-21T21:49:58.239Z,15.67
2023-01-21T21:52:26.497Z,13.67
2023-01-21T21:54:54.907Z,13.73
2023-01-21T21:57:22.170Z,13.33
2023-01-21T21:59:49.523Z,15.93
2023-01-21T22:02:16.849Z,13.13
2023-01-21T22:04:44.635Z,14.27
2023-01-21T22:07:11.732Z,14.50
2023-01-21T22:09:46.888Z,15.10
2023-01-21T22:12:14.190Z,15.13
2023-01-21T22:14:42.822Z,14.90
2023-01-21T22:17:11.062Z,15.37
2023-01-21T22:19:39.012Z,14.80
2023-01-21T22:22:06.102Z,14.03
2023-01-21T22:24:34.361Z,16.00
2023-01-21T22:27:01.916Z,16.17
2023-01-21T22:29:30.318Z,14.77
2023-01-21T22:31:57.477Z,15.83
2023-01-21T22:34:24.387Z,16.77
2023-01-21T22:36:52.803Z,15.37
2023-01-21T22:39:20.064Z,15.77
2023-01-21T22:41:47.177Z,15.00
2023-01-21T22:44:16.116Z,15.00
2023-01-21T22:46:43.274Z,14.47
2023-01-21T22:49:12.186Z,15.70
2023-01-21T22:51:39.156Z,14.10
2023-01-21T22:54:07.509Z,17.90
2023-01-21T22:56:51.031Z,19.47
2023-01-21T22:59:25.629Z,27.47
2023-01-21T23:01:56.045Z,26.73
2023-01-21T23:04:25.926Z,23.77
2023-01-21T23:06:55.245Z,20.87
2023-01-21T23:09:22.668Z,17.00
2023-01-21T23:11:52.578Z,17.20
2023-01-21T23:14:20.251Z,16.57
2023-01-21T23:16:47.255Z,15.13
2023-01-21T23:19:14.502Z,15.13
2023-01-21T23:21:41.588Z,14.97
2023-01-21T23:24:09.012Z,16.57
2023-01-21T23:26:36.761Z,14.97
2023-01-21T23:29:04.101Z,16.40
2023-01-21T23:31:31.304Z,14.83
2023-01-21T23:33:58.760Z,15.30
2023-01-21T23:36:25.795Z,15.17
2023-01-21T23:38:52.763Z,15.87
2023-01-21T23:41:21.159Z,15.27
2023-01-21T23:43:48.197Z,14.40
2023-01-21T23:46:19.403Z,15.10
2023-01-21T23:48:46.641Z,15.77
2023-01-21T23:51:15.587Z,14.70
2023-01-21T23:53:43.364Z,14.20
2023-01-21T23:56:13.363Z,16.03
2023-01-21T23:58:40.489Z,15.63
